D/T METAR WX W/DIR W/SPE G/SPE TEMP DEWP
23/03/19 12:00 EISG 231200Z 27005KT 9999 SCT046 09/03 Q1034 W (270°) 5.8mph 9°C 3°C
23/03/19 11:30 EISG 231130Z 26004KT 230V290 9999 BKN039 OVC055 08/02 Q1034 W (260°) 4.6mph 8°C 2°C
23/03/19 11:00 EISG 231100Z 28007KT 250V310 9999 BKN039 BKN050 08/02 Q1034 W (280°) 8.1mph 8°C 2°C
23/03/19 10:30 EISG 231030Z 26007KT 8000 NSC 08/03 Q1034 W (260°) 8.1mph 8°C 3°C
23/03/19 10:00 EISG 231000Z 26007KT 7000 NSC 08/03 Q1033 W (260°) 8.1mph 8°C 3°C
23/03/19 09:30 EISG 230930Z 25006KT 6000 FEW032 SCT055 07/04 Q1033 WSW (250°) 6.9mph 7°C 4°C
23/03/19 08:30 EISG 230830Z 25008KT 8000 NSC 06/02 Q1033 WSW (250°) 9.2mph 6°C 2°C
23/03/19 08:00 EISG 230800Z 25007KT 7000 BKN050 06/02 Q1032 WSW (250°) 8.1mph 6°C 2°C
22/03/19 19:30 EISG 221930Z 25009KT 8000 FEW034 SCT060 06/03 Q1026 WSW (250°) 10.4mph 6°C 3°C
22/03/19 19:00 EISG 221900Z 25012KT 9000 NSC 07/03 Q1025 WSW (250°) 13.8mph 7°C 3°C
22/03/19 18:30 EISG 221830Z 25016KT 7000 FEW026 BKN045 OVC055 07/03 Q1024 WSW (250°) 18.4mph 7°C 3°C
22/03/19 18:00 EISG 221800Z 26011KT 9000 FEW035 BKN045 08/04 Q1024 W (260°) 12.7mph 8°C 4°C
22/03/19 17:30 EISG 221730Z 25015KT 9999 FEW039 SCT047 08/04 Q1023 WSW (250°) 17.3mph 8°C 4°C
22/03/19 17:00 EISG 221700Z 26015G27KT 9999 BKN048 BKN060 09/02 Q1023 W (260°) 17.3mph 31.1mph 9°C 2°C
22/03/19 16:30 EISG 221630Z 25014KT 9999 FEW047 SCT055 09/02 Q1023 WSW (250°) 16.1mph 9°C 2°C
22/03/19 16:00 EISG 221600Z 25018KT CAVOK 09/01 Q1022 WSW (250°) 20.7mph 9°C 1°C
22/03/19 15:30 EISG 221530Z 26019KT 8000 SCT040 SCT047 SCT055 09/03 Q1022 W (260°) 21.9mph 9°C 3°C
22/03/19 15:00 EISG 221500Z 26015KT CAVOK 10/04 Q1022 W (260°) 17.3mph 10°C 4°C
22/03/19 14:00 EISG 221400Z 27016KT 9999 FEW043 SCT050 09/05 Q1021 W (270°) 18.4mph 9°C 5°C
22/03/19 13:30 EISG 221330Z 26017KT CAVOK 09/04 Q1021 W (260°) 19.6mph 9°C 4°C
22/03/19 12:30 EISG 221230Z 25009KT 9999 SCT032 BKN050 10/07 Q1020 WSW (250°) 10.4mph 10°C 7°C
22/03/19 12:00 EISG 221200Z 25012KT 7000 FEW016 SCT024 BKN035 08/06 Q1020 WSW (250°) 13.8mph 8°C 6°C
22/03/19 11:30 EISG 221130Z 26007KT 9000 FEW018 BKN029 OVC055 09/08 Q1019 W (260°) 8.1mph 9°C 8°C
22/03/19 11:00 EISG 221100Z 24010KT 9000 SCT026 BKN036 BKN060 09/07 Q1019 WSW (240°) 11.5mph 9°C 7°C
22/03/19 10:30 EISG 221030Z 23011KT 9000 FEW014 BKN041 09/07 Q1018 SW (230°) 12.7mph 9°C 7°C
22/03/19 10:00 EISG 221000Z 22007KT 180V250 8000 FEW017 BKN033 OVC055 08/07 Q1018 SW (220°) 8.1mph 8°C 7°C
22/03/19 09:30 EISG 220930Z 24012KT 8000 BKN048 OVC055 09/08 Q1017 WSW (240°) 13.8mph 9°C 8°C
22/03/19 09:00 EISG 220900Z 24009KT 7000 SCT014 BKN019 OVC050 09/09 Q1017 RERA WSW (240°) 10.4mph 9°C 9°C
22/03/19 08:30 EISG 220830Z 20009KT 150V230 6000 BKN015 OVC021 10/09 Q1016 SSW (200°) 10.4mph 10°C 9°C
22/03/19 08:00 EISG 220800Z 18008G20KT 120V230 7000 BKN015 OVC020 10/09 Q1016 S (180°) 9.2mph 23.0mph 10°C 9°C
21/03/19 17:00 EISG 211700Z 16009G19KT 130V200 9999 SCT022 12/08 Q1025 SSE (160°) 10.4mph 21.9mph 12°C 8°C
21/03/19 16:30 EISG 211630Z 18005G19KT 120V260 9999 SCT023 12/08 Q1026 S (180°) 5.8mph 21.9mph 12°C 8°C
21/03/19 16:00 EISG 211600Z VRB05KT 9999 BKN023 12/08 Q1026 N (0°) 5.8mph 12°C 8°C
21/03/19 12:30 EISG 211230Z 19007KT 150V230 9999 BKN020 OVC025 13/10 Q1029 S (190°) 8.1mph 13°C 10°C
21/03/19 11:30 EISG 211130Z 18005KT 130V260 9999 SCT012 OVC023 13/11 Q1029 S (180°) 5.8mph 13°C 11°C
21/03/19 11:00 EISG 211100Z 19005KT 140V250 9999 FEW011 BKN024 OVC031 12/11 Q1029 S (190°) 5.8mph 12°C 11°C
21/03/19 10:30 EISG 211030Z 19006KT 150V220 9999 BKN012 OVC022 12/10 Q1029 S (190°) 6.9mph 12°C 10°C
21/03/19 10:00 EISG 211000Z 19005KT 150V230 9999 BKN013 OVC021 12/11 Q1029 S (190°) 5.8mph 12°C 11°C
21/03/19 09:00 EISG 210900Z 20006KT 160V230 9999 SCT008 BKN015 OVC024 11/10 Q1029 SSW (200°) 6.9mph 11°C 10°C
21/03/19 08:30 EISG 210830Z VRB03KT 9999 BKN008 11/10 Q1029 N (0°) 3.5mph 11°C 10°C
20/03/19 17:30 EISG 201730Z 24013KT 7000 SCT025 SCT030 BKN049 12/09 Q1025 WSW (240°) 15.0mph 12°C 9°C
20/03/19 17:00 EISG 201700Z 24012KT 7000 OVC024 12/10 Q1026 WSW (240°) 13.8mph 12°C 10°C
20/03/19 16:30 EISG 201630Z 24018KT 9000 FEW024 SCT029 BKN039 13/10 Q1025 WSW (240°) 20.7mph 13°C 10°C
20/03/19 16:00 EISG 201600Z 24020KT 8000 FEW021 BKN044 OVC050 13/11 Q1025 WSW (240°) 23.0mph 13°C 11°C
20/03/19 15:30 EISG 201530Z 24012KT 5000 BR BKN015 BKN023 OVC031 13/12 Q1025 BR WSW (240°) 13.8mph 13°C 12°C
20/03/19 15:00 EISG 201500Z 20007KT 150V260 9999 OVC019 14/12 Q1025 SSW (200°) 8.1mph 14°C 12°C
20/03/19 14:30 EISG 201430Z 19006KT 140V240 9999 SCT018 BKN025 OVC031 14/12 Q1026 S (190°) 6.9mph 14°C 12°C
20/03/19 14:00 EISG 201400Z 20008KT 170V230 9999 FEW025 OVC036 15/12 Q1026 SSW (200°) 9.2mph 15°C 12°C
20/03/19 13:30 EISG 201330Z 19007KT 140V230 9999 FEW018 SCT025 BKN034 16/12 Q1026 S (190°) 8.1mph 16°C 12°C
20/03/19 13:00 EISG 201300Z 19006KT 130V240 9999 FEW018 BKN024 OVC033 15/12 Q1026 S (190°) 6.9mph 15°C 12°C
20/03/19 12:30 EISG 201230Z 20007KT 150V230 9999 SCT016 OVC024 14/11 Q1026 SSW (200°) 8.1mph 14°C 11°C
20/03/19 12:00 EISG 201200Z 18006KT 130V240 9999 OVC015 13/11 Q1027 S (180°) 6.9mph 13°C 11°C
20/03/19 11:30 EISG 201130Z 20008G19KT 130V230 9999 BKN012 OVC019 13/11 Q1026 SSW (200°) 9.2mph 21.9mph 13°C 11°C
20/03/19 11:00 EISG 201100Z 17005KT 110V230 9999 OVC009 12/11 Q1026 S (170°) 5.8mph 12°C 11°C
20/03/19 10:30 EISG 201030Z 17004KT 130V220 9999 OVC009 11/10 Q1027 S (170°) 4.6mph 11°C 10°C
20/03/19 10:00 EISG 201000Z VRB03KT 9999 OVC010 11/10 Q1027 N (0°) 3.5mph 11°C 10°C
20/03/19 09:30 EISG 200930Z 17005KT 140V210 9999 SCT010 BKN024 OVC029 11/10 Q1027 S (170°) 5.8mph 11°C 10°C
20/03/19 09:00 EISG 200900Z 18005KT 130V240 9999 FEW012 OVC030 10/10 Q1027 S (180°) 5.8mph 10°C 10°C
20/03/19 08:30 EISG 200830Z 17006KT 140V200 9999 FEW009 OVC031 10/10 Q1027 S (170°) 6.9mph 10°C 10°C
20/03/19 08:00 EISG 200800Z 17005KT 140V220 9999 BKN006 OVC033 09/09 Q1026 S (170°) 5.8mph 9°C 9°C
19/03/19 19:30 EISG 191930Z 25006KT 8000 SCT021 10/09 Q1025 WSW (250°) 6.9mph 10°C 9°C
19/03/19 19:00 EISG 191900Z 25006KT 8000 OVC015 10/09 Q1025 WSW (250°) 6.9mph 10°C 9°C
19/03/19 18:30 EISG 191830Z 26006KT 8000 OVC015 10/09 Q1025 W (260°) 6.9mph 10°C 9°C
19/03/19 18:00 EISG 191800Z 27007KT 6000 OVC015 10/09 Q1025 W (270°) 8.1mph 10°C 9°C
19/03/19 17:30 EISG 191730Z 28006KT 9000 BKN013 OVC019 10/09 Q1025 W (280°) 6.9mph 10°C 9°C
19/03/19 17:00 EISG 191700Z 28008KT 9999 OVC018 10/09 Q1024 W (280°) 9.2mph 10°C 9°C
19/03/19 16:30 EISG 191630Z 28006KT 9999 OVC015 10/09 Q1024 W (280°) 6.9mph 10°C 9°C
19/03/19 16:00 EISG 191600Z 28008KT 9999 OVC018 11/09 Q1024 W (280°) 9.2mph 11°C 9°C
19/03/19 15:30 EISG 191530Z 28006KT 9000 OVC019 11/09 Q1024 W (280°) 6.9mph 11°C 9°C
19/03/19 15:00 EISG 191500Z 28008KT 9999 BKN021 OVC027 11/09 Q1023 W (280°) 9.2mph 11°C 9°C
19/03/19 14:30 EISG 191430Z 28006KT 9999 SCT015 BKN022 OVC031 11/10 Q1023 W (280°) 6.9mph 11°C 10°C
19/03/19 14:00 EISG 191400Z 27010KT 9999 SCT015 OVC025 11/10 Q1023 W (270°) 11.5mph 11°C 10°C
19/03/19 13:30 EISG 191330Z 28012KT 9999 OVC025 11/10 Q1023 W (280°) 13.8mph 11°C 10°C
19/03/19 13:00 EISG 191300Z 29008KT 9999 BKN023 11/10 Q1022 WNW (290°) 9.2mph 11°C 10°C
19/03/19 12:30 EISG 191230Z 28008KT 9999 BKN024 12/10 Q1022 W (280°) 9.2mph 12°C 10°C
19/03/19 12:00 EISG 191200Z 26009KT 9999 BKN018 BKN023 12/10 Q1022 W (260°) 10.4mph 12°C 10°C
19/03/19 11:30 EISG 191130Z 25009KT 9999 BKN014 OVC020 12/11 Q1022 WSW (250°) 10.4mph 12°C 11°C
19/03/19 11:00 EISG 191100Z 24007KT 8000 BKN014 OVC033 12/11 Q1022 WSW (240°) 8.1mph 12°C 11°C
19/03/19 10:30 EISG 191030Z 24011KT 9999 OVC012 11/10 Q1022 WSW (240°) 12.7mph 11°C 10°C
19/03/19 10:00 EISG 191000Z 23008KT 7000 BKN013 OVC020 11/10 Q1022 SW (230°) 9.2mph 11°C 10°C
19/03/19 09:30 EISG 190930Z 17004KT 130V210 9999 OVC015 10/09 Q1022 S (170°) 4.6mph 10°C 9°C
19/03/19 09:00 EISG 190900Z 18005KT 130V230 9999 OVC019 10/09 Q1021 S (180°) 5.8mph 10°C 9°C
19/03/19 08:30 EISG 190830Z 17005KT 140V220 9999 OVC017 09/09 Q1021 S (170°) 5.8mph 9°C 9°C
19/03/19 08:00 EISG 190800Z 17006KT 130V200 9999 FEW011 OVC018 09/09 Q1021 S (170°) 6.9mph 9°C 9°C
18/03/19 18:30 EISG 181830Z 27010KT 9999 FEW008 BKN013 OVC021 08/08 Q1022 W (270°) 11.5mph 8°C 8°C
18/03/19 18:00 EISG 181800Z 26007KT 9999 -RA BKN009 OVC015 09/09 Q1021 -RA W (260°) 8.1mph 9°C 9°C
18/03/19 17:30 EISG 181730Z 28006KT 6000 -DZ SCT006 BKN015 OVC022 09/09 Q1021 -DZ W (280°) 6.9mph 9°C 9°C
18/03/19 17:00 EISG 181700Z 29010KT 9999 FEW008 OVC018 09/09 Q1021 WNW (290°) 11.5mph 9°C 9°C
18/03/19 16:30 EISG 181630Z 28010KT 6000 SCT006 BKN019 OVC027 09/09 Q1020 W (280°) 11.5mph 9°C 9°C
18/03/19 16:00 EISG 181600Z 28011KT 7000 SCT006 BKN035 OVC055 09/09 Q1020 W (280°) 12.7mph 9°C 9°C
18/03/19 15:00 EISG 181500Z 27014KT SCT007 BKN044 09/09 Q1020 W (270°) 16.1mph 9°C 9°C
18/03/19 14:30 EISG 181430Z 27011KT 9999 SCT009 OVC050 09/09 Q1019 W (270°) 12.7mph 9°C 9°C
18/03/19 14:00 EISG 181400Z 28012KT 9999 FEW008 SCT040 BKN049 09/08 Q1019 W (280°) 13.8mph 9°C 8°C
18/03/19 13:00 EISG 181300Z 27015KT 9999 SCT010 BKN022 BKN028 10/09 Q1019 W (270°) 17.3mph 10°C 9°C
18/03/19 12:30 EISG 181230Z 27015KT 9999 BKN028 09/09 Q1019 W (270°) 17.3mph 9°C 9°C
18/03/19 12:00 EISG 181200Z 27015G25KT 9999 SCT031 BKN042 09/09 Q1019 W (270°) 17.3mph 28.8mph 9°C 9°C
18/03/19 11:30 EISG 181130Z 27014KT 9999 FEW017 BKN039 BKN046 09/09 Q1018 W (270°) 16.1mph 9°C 9°C
18/03/19 11:00 EISG 181100Z 27013KT 8000 FEW014 SCT019 BKN035 09/09 Q1018 W (270°) 15.0mph 9°C 9°C
18/03/19 10:30 EISG 181030Z 26012KT 9999 -RA BKN014 OVC021 08/08 Q1018 -RA W (260°) 13.8mph 8°C 8°C
18/03/19 09:30 EISG 180930Z 25011KT 9999 SCT009 BKN016 OVC033 08/08 Q1017 WSW (250°) 12.7mph 8°C 8°C
18/03/19 09:00 EISG 180900Z 25014KT 5000 BKN010 OVC016 08/07 Q1017 WSW (250°) 16.1mph 8°C 7°C
18/03/19 08:30 EISG 180830Z 25013KT 7000 SCT010 BKN020 OVC025 08/07 Q1017 WSW (250°) 15.0mph 8°C 7°C
18/03/19 08:00 EISG 180800Z 24012KT 9999 SCT010 BKN021 OVC031 07/07 Q1016 WSW (240°) 13.8mph 7°C 7°C
17/03/19 19:30 EISG 171930Z 31010KT 9999 SCT048 BKN055 07/04 Q1015 NW (310°) 11.5mph 7°C 4°C
17/03/19 19:00 EISG 171900Z 31016KT 9999 FEW024 SCT029 SCT046 07/04 Q1015 NW (310°) 18.4mph 7°C 4°C
17/03/19 18:30 EISG 171830Z 29017KT 9999 FEW032 08/05 Q1015 WNW (290°) 19.6mph 8°C 5°C
17/03/19 18:00 EISG 171800Z 30015KT CAVOK 08/04 Q1015 WNW (300°) 17.3mph 8°C 4°C
17/03/19 17:30 EISG 171730Z 30015KT CAVOK 08/05 Q1014 WNW (300°) 17.3mph 8°C 5°C
17/03/19 17:00 EISG 171700Z 30014KT CAVOK 09/05 Q1014 WNW (300°) 16.1mph 9°C 5°C
17/03/19 16:30 EISG 171630Z 31015KT 9999 FEW015 SCT029 09/05 Q1013 NW (310°) 17.3mph 9°C 5°C
17/03/19 16:00 EISG 171600Z 31014KT CAVOK 09/05 Q1013 NW (310°) 16.1mph 9°C 5°C
17/03/19 15:30 EISG 171530Z 32014KT 9999 SCT026 BKN035 10/06 Q1012 NW (320°) 16.1mph 10°C 6°C
17/03/19 15:00 EISG 171500Z 32018KT 9999 FEW032 09/05 Q1012 NW (320°) 20.7mph 9°C 5°C
17/03/19 14:30 EISG 171430Z 32017KT 9999 SCT030 10/06 Q1011 NW (320°) 19.6mph 10°C 6°C
17/03/19 14:00 EISG 171400Z 31017KT CAVOK 10/06 Q1010 NW (310°) 19.6mph 10°C 6°C
17/03/19 13:30 EISG 171330Z 32020KT CAVOK 10/05 Q1010 NW (320°) 23.0mph 10°C 5°C
17/03/19 13:00 EISG 171300Z 31019KT 9999 FEW025 10/06 Q1009 NW (310°) 21.9mph 10°C 6°C
17/03/19 12:30 EISG 171230Z 31019KT 9999 FEW025 SCT046 SCT050 09/06 Q1008 NW (310°) 21.9mph 9°C 6°C
17/03/19 12:00 EISG 171200Z 31017KT 9999 FEW027 SCT055 10/06 Q1007 NW (310°) 19.6mph 10°C 6°C
17/03/19 11:30 EISG 171130Z 31021KT 9999 SCT034 SCT047 09/05 Q1007 NW (310°) 24.2mph 9°C 5°C
17/03/19 11:00 EISG 171100Z 31021KT 9999 SCT029 BKN042 09/05 Q1006 NW (310°) 24.2mph 9°C 5°C
17/03/19 10:30 EISG 171030Z 31020KT 9999 FEW035 09/05 Q1005 NW (310°) 23.0mph 9°C 5°C
17/03/19 10:00 EISG 171000Z 30021KT 9999 FEW033 SCT044 SCT060 08/05 Q1004 WNW (300°) 24.2mph 8°C 5°C
17/03/19 09:30 EISG 170930Z 30023G35KT 8000 BKN024 BKN033 OVC044 07/05 Q1004 WNW (300°) 26.5mph 40.3mph 7°C 5°C
17/03/19 09:00 EISG 170900Z 29026KT 9999 FEW025 SCT033 BKN045 07/04 Q1003 WNW (290°) 29.9mph 7°C 4°C
17/03/19 08:30 EISG 170830Z 28027G38KT 9999 SCT027 BKN035 06/04 Q1002 W (280°) 31.1mph 43.7mph 6°C 4°C
17/03/19 08:00 EISG 170800Z 26014KT 9999 FEW022 SCT031 OVC040 05/02 Q1002 W (260°) 16.1mph 5°C 2°C
16/03/19 18:30 EISG 161830Z 31018KT 9999 FEW015 SCT038 06/02 Q0995 NW (310°) 20.7mph 6°C 2°C
16/03/19 18:00 EISG 161800Z 32020G31KT 9999 BKN030 BKN037 05/03 Q//// NW (320°) 23.0mph 35.7mph 5°C 3°C
16/03/19 17:30 EISG 161730Z 32017KT 9999 FEW023 06/03 Q//// NW (320°) 19.6mph 6°C 3°C
16/03/19 17:00 EISG 161700Z 30017KT 9999 SCT019 BKN025 OVC031 05/03 Q0993 WNW (300°) 19.6mph 5°C 3°C
16/03/19 16:30 EISG 161630Z 29024KT 6000 FEW017 BKN026 BKN039 04/03 Q0992 WNW (290°) 27.6mph 4°C 3°C
16/03/19 16:00 EISG 161600Z 30016KT 9999 FEW018 BKN024 BKN030 05/03 Q0992 WNW (300°) 18.4mph 5°C 3°C
16/03/19 15:30 EISG 161530Z 31019KT 9999 FEW009 SCT015 OVC021 05/04 Q0992 NW (310°) 21.9mph 5°C 4°C
16/03/19 15:00 EISG 161500Z 30021KT 9999 FEW016 BKN021 BKN033 05/04 Q0991 WNW (300°) 24.2mph 5°C 4°C
16/03/19 14:30 EISG 161430Z 29017KT 9999 -RA BKN017 BKN022 06/05 Q0991 RERA -RA WNW (290°) 19.6mph 6°C 5°C
16/03/19 14:00 EISG 161400Z 30018KT 6000 SCT017 BKN024 OVC034 05/03 Q0991 WNW (300°) 20.7mph 5°C 3°C
16/03/19 13:30 EISG 161330Z 32014KT 9999 FEW017 SCT022 BKN028 07/05 Q0990 NW (320°) 16.1mph 7°C 5°C
16/03/19 13:00 EISG 161300Z 32016KT 8000 SCT018 BKN030 BKN039 06/04 Q0989 NW (320°) 18.4mph 6°C 4°C
16/03/19 12:30 EISG 161230Z 32018KT 9999 FEW016 SCT024 06/04 Q0989 NW (320°) 20.7mph 6°C 4°C
16/03/19 12:00 EISG 161200Z 32020KT 9999 FEW018 OVC024 06/04 Q0988 NW (320°) 23.0mph 6°C 4°C
16/03/19 11:30 EISG 161130Z 31020KT 9999 BKN018 OVC024 06/04 Q0988 NW (310°) 23.0mph 6°C 4°C
16/03/19 11:00 EISG 161100Z 30020KT 6000 OVC013 05/05 Q0987 WNW (300°) 23.0mph 5°C 5°C
16/03/19 10:30 EISG 161030Z 29019KT 9000 BKN010 OVC015 06/05 Q0986 WNW (290°) 21.9mph 6°C 5°C